createdAt,value
2023-02-15T00:00:09.374Z,11.90
2023-02-15T00:02:35.964Z,12.50
2023-02-15T00:05:02.548Z,11.50
2023-02-15T00:07:29.007Z,10.07
2023-02-15T00:09:55.475Z,9.77
2023-02-15T00:12:21.944Z,9.73
2023-02-15T00:14:48.740Z,9.80
2023-02-15T00:17:15.244Z,8.30
2023-02-15T00:19:41.694Z,7.83
2023-02-15T00:22:08.388Z,7.30
2023-02-15T00:24:34.863Z,10.27
2023-02-15T00:27:01.349Z,10.87
2023-02-15T00:29:27.913Z,10.83
2023-02-15T00:31:54.593Z,11.50
2023-02-15T00:34:22.341Z,10.47
2023-02-15T00:36:49.092Z,9.47
2023-02-15T00:39:16.034Z,13.20
2023-02-15T00:41:42.584Z,9.47
2023-02-15T00:44:09.161Z,9.97
2023-02-15T00:46:36.035Z,9.60
2023-02-15T00:49:02.669Z,9.80
2023-02-15T00:51:29.383Z,10.13
2023-02-15T00:53:56.092Z,10.27
2023-02-15T00:56:22.659Z,11.90
2023-02-15T00:58:49.285Z,8.90
2023-02-15T01:01:19.822Z,8.77
2023-02-15T01:03:47.612Z,9.60
2023-02-15T01:06:15.174Z,8.97
2023-02-15T01:08:42.227Z,9.27
2023-02-15T01:11:10.171Z,8.77
2023-02-15T01:13:36.659Z,11.67
2023-02-15T01:16:04.183Z,13.20
2023-02-15T01:18:31.440Z,9.20
2023-02-15T01:20:58.536Z,7.53
2023-02-15T01:23:25.010Z,12.73
2023-02-15T01:25:51.444Z,12.87
2023-02-15T01:28:17.933Z,11.17
2023-02-15T01:30:44.531Z,10.27
2023-02-15T01:33:18.460Z,11.10
2023-02-15T01:35:46.574Z,10.20
2023-02-15T01:38:13.973Z,7.87
2023-02-15T01:40:40.415Z,8.00
2023-02-15T01:43:10.419Z,7.93
2023-02-15T01:45:36.962Z,7.63
2023-02-15T01:48:07.326Z,8.40
2023-02-15T01:51:00.323Z,8.07
2023-02-15T01:53:31.795Z,9.27
2023-02-15T01:56:00.637Z,9.37
2023-02-15T01:58:28.412Z,8.23
2023-02-15T02:00:55.475Z,9.87
2023-02-15T02:03:25.597Z,8.43
2023-02-15T02:05:52.026Z,7.43
2023-02-15T02:08:18.708Z,8.40
2023-02-15T02:10:45.635Z,9.23
2023-02-15T02:13:12.157Z,7.57
2023-02-15T02:15:48.876Z,11.53
2023-02-15T02:18:34.098Z,11.30
2023-02-15T02:21:03.069Z,12.30
2023-02-15T02:23:34.552Z,13.70
2023-02-15T02:26:19.677Z,12.37
2023-02-15T02:28:56.365Z,14.40
2023-02-15T02:31:29.024Z,11.30
2023-02-15T02:34:04.305Z,12.43
2023-02-15T02:36:33.405Z,13.53
2023-02-15T02:39:14.990Z,11.73
2023-02-15T02:41:56.379Z,12.77
2023-02-15T02:44:28.703Z,12.80
2023-02-15T02:46:58.950Z,9.53
2023-02-15T02:49:38.712Z,10.67
2023-02-15T02:52:06.775Z,10.87
2023-02-15T02:54:35.153Z,6.70
2023-02-15T02:57:04.051Z,6.40
2023-02-15T02:59:32.839Z,5.87
2023-02-15T03:02:05.745Z,6.33
2023-02-15T03:04:33.212Z,7.63
2023-02-15T03:07:02.187Z,7.77
2023-02-15T03:09:42.892Z,7.43
2023-02-15T03:23:25.997Z,8.00
2023-02-15T03:26:02.861Z,6.40
2023-02-15T03:28:55.874Z,6.67
2023-02-15T03:31:24.404Z,7.10
2023-02-15T03:33:53.129Z,5.83
2023-02-15T03:36:20.165Z,4.90
2023-02-15T03:39:05.244Z,5.37
2023-02-15T03:41:35.023Z,6.33
2023-02-15T03:59:02.033Z,3.63
2023-02-15T04:01:58.603Z,5.93
2023-02-15T04:04:27.445Z,5.07
2023-02-15T04:06:53.939Z,12.23
2023-02-15T04:09:38.961Z,5.10
2023-02-15T04:12:05.469Z,9.07
2023-02-15T04:14:50.567Z,10.10
2023-02-15T04:17:17.031Z,10.93
2023-02-15T04:20:02.246Z,10.87
2023-02-15T04:22:47.467Z,11.73
2023-02-15T04:25:14.013Z,17.23
2023-02-15T04:27:41.544Z,19.53
2023-02-15T04:30:14.982Z,19.00
2023-02-15T04:32:41.792Z,15.13
2023-02-15T04:35:08.753Z,16.57
2023-02-15T04:37:35.351Z,13.63
2023-02-15T04:40:01.956Z,15.17
2023-02-15T04:42:28.605Z,13.97
2023-02-15T04:44:55.177Z,13.30
2023-02-15T04:47:21.655Z,11.23
2023-02-15T04:49:48.156Z,6.93
2023-02-15T04:52:14.612Z,5.70
2023-02-15T04:54:41.110Z,5.90
2023-02-15T04:57:07.616Z,5.03
2023-02-15T04:59:34.075Z,5.90
2023-02-15T05:02:00.507Z,7.07
2023-02-15T05:04:27.015Z,7.67
2023-02-15T05:06:53.682Z,14.37
2023-02-15T05:09:20.221Z,17.40
2023-02-15T05:11:46.731Z,18.50
2023-02-15T05:14:13.554Z,17.83
2023-02-15T05:16:40.240Z,18.70
2023-02-15T05:19:06.775Z,21.63
2023-02-15T05:21:33.849Z,15.10
2023-02-15T05:24:00.394Z,13.17
2023-02-15T05:26:45.203Z,11.87
2023-02-15T05:29:11.694Z,15.70
2023-02-15T05:31:38.376Z,13.83
2023-02-15T05:34:05.027Z,13.10
2023-02-15T05:36:31.530Z,23.67
2023-02-15T05:38:57.966Z,18.10
2023-02-15T05:41:25.187Z,23.57
2023-02-15T05:43:51.666Z,20.30
2023-02-15T05:46:18.411Z,9.83
2023-02-15T05:48:44.973Z,9.90
2023-02-15T05:51:14.209Z,8.40
2023-02-15T05:53:40.833Z,7.70
2023-02-15T05:56:09.774Z,6.23
2023-02-15T05:58:37.196Z,6.17
2023-02-15T06:01:18.188Z,6.00
2023-02-15T06:03:45.386Z,7.43
2023-02-15T06:06:12.132Z,6.27
2023-02-15T06:08:38.936Z,7.23
2023-02-15T06:11:05.841Z,7.40
2023-02-15T06:13:32.949Z,10.67
2023-02-15T06:15:59.696Z,10.83
2023-02-15T06:18:26.498Z,6.00
2023-02-15T06:20:52.983Z,7.17
2023-02-15T06:23:19.527Z,7.63
2023-02-15T06:25:48.843Z,6.10
2023-02-15T06:28:15.292Z,7.17
2023-02-15T06:34:28.218Z,9.53
2023-02-15T06:36:54.686Z,9.17
2023-02-15T06:39:21.110Z,9.70
2023-02-15T06:41:47.600Z,10.30
2023-02-15T06:44:14.183Z,9.47
2023-02-15T06:46:40.740Z,16.33
2023-02-15T06:49:07.344Z,9.60
2023-02-15T06:51:35.146Z,13.80
2023-02-15T06:54:01.604Z,8.93
2023-02-15T06:56:28.080Z,13.80
2023-02-15T06:58:54.641Z,12.17
2023-02-15T07:01:21.213Z,15.03
2023-02-15T07:03:47.916Z,17.40
2023-02-15T07:06:14.703Z,15.77
2023-02-15T07:08:41.457Z,14.17
2023-02-15T07:11:31.015Z,18.90
2023-02-15T07:13:57.925Z,17.73
2023-02-15T07:16:25.936Z,20.57
2023-02-15T07:18:52.669Z,15.00
2023-02-15T07:21:19.432Z,16.30
2023-02-15T07:23:46.336Z,15.37
2023-02-15T07:26:13.130Z,16.23
2023-02-15T07:28:39.702Z,12.53
2023-02-15T07:31:06.654Z,10.33
2023-02-15T07:33:33.812Z,14.03
2023-02-15T07:36:03.245Z,13.87
2023-02-15T07:38:33.853Z,10.60
2023-02-15T07:41:01.066Z,10.43
2023-02-15T07:43:28.009Z,25.07
2023-02-15T07:45:54.629Z,41.63
2023-02-15T07:48:22.748Z,46.37
2023-02-15T07:50:51.122Z,17.40
2023-02-15T07:53:17.727Z,9.07
2023-02-15T07:55:44.285Z,8.30
2023-02-15T07:58:10.859Z,7.73
2023-02-15T08:00:57.335Z,6.67
2023-02-15T08:03:27.636Z,8.47
2023-02-15T08:05:59.674Z,9.77
2023-02-15T08:08:33.056Z,8.77
2023-02-15T08:11:22.363Z,11.07
2023-02-15T08:13:56.101Z,9.23
2023-02-15T08:16:25.766Z,9.87
2023-02-15T08:18:53.320Z,8.87
2023-02-15T08:21:20.476Z,8.67
2023-02-15T08:23:49.688Z,8.23
2023-02-15T08:26:17.838Z,11.30
2023-02-15T08:28:44.922Z,8.80
2023-02-15T08:31:12.376Z,9.83
2023-02-15T08:33:39.928Z,10.47
2023-02-15T08:36:08.688Z,10.50
2023-02-15T08:38:35.665Z,11.50
2023-02-15T08:41:14.407Z,12.17
2023-02-15T08:43:41.441Z,10.50
2023-02-15T08:46:07.959Z,9.70
2023-02-15T08:48:34.511Z,10.57
2023-02-15T08:51:06.881Z,9.87
2023-02-15T08:53:33.429Z,11.77
2023-02-15T08:56:00.447Z,12.77
2023-02-15T08:58:27.007Z,14.50
2023-02-15T09:00:53.499Z,10.90
2023-02-15T09:03:20.256Z,10.60
2023-02-15T09:05:46.805Z,11.37
2023-02-15T09:08:13.303Z,10.00
2023-02-15T09:10:39.972Z,9.97
2023-02-15T09:13:06.746Z,14.23
2023-02-15T09:15:33.329Z,11.67
2023-02-15T09:18:02.492Z,12.37
2023-02-15T09:20:29.851Z,12.43
2023-02-15T09:22:58.578Z,11.30
2023-02-15T09:25:26.400Z,11.87
2023-02-15T09:27:53.316Z,10.67
2023-02-15T09:30:20.051Z,11.17
2023-02-15T09:32:47.236Z,13.53
2023-02-15T09:35:13.753Z,11.67
2023-02-15T09:37:40.398Z,17.37
2023-02-15T09:40:07.137Z,14.33
2023-02-15T09:42:34.243Z,11.30
2023-02-15T09:45:00.807Z,10.20
2023-02-15T09:47:42.613Z,11.30
2023-02-15T09:50:09.955Z,10.23
2023-02-15T09:52:43.405Z,17.77
2023-02-15T09:55:09.860Z,11.10
2023-02-15T09:57:36.286Z,10.90
2023-02-15T10:00:16.951Z,12.80
2023-02-15T10:02:43.384Z,18.63
2023-02-15T10:05:20.774Z,16.27
2023-02-15T10:08:04.418Z,19.10
2023-02-15T10:10:34.193Z,17.17
2023-02-15T10:13:15.881Z,16.23
2023-02-15T10:15:53.204Z,21.87
2023-02-15T10:18:32.631Z,23.33
2023-02-15T10:21:09.748Z,27.87
2023-02-15T10:23:36.406Z,19.00
2023-02-15T10:26:12.558Z,13.30
2023-02-15T10:28:39.144Z,11.27
2023-02-15T10:31:26.598Z,12.20
2023-02-15T10:34:11.675Z,11.37
2023-02-15T10:37:10.309Z,10.53
2023-02-15T10:39:49.685Z,11.17
2023-02-15T10:42:31.189Z,11.90
2023-02-15T10:45:01.183Z,11.20
2023-02-15T10:47:46.187Z,10.67
2023-02-15T10:50:27.577Z,10.70
2023-02-15T10:53:32.697Z,11.97
2023-02-15T10:56:10.736Z,12.37
2023-02-15T10:58:57.516Z,17.20
2023-02-15T11:01:28.377Z,10.90
2023-02-15T11:04:13.776Z,16.53
2023-02-15T11:06:42.439Z,18.30
2023-02-15T11:09:13.874Z,12.57
2023-02-15T11:11:43.298Z,12.17
2023-02-15T11:14:17.061Z,13.67
2023-02-15T11:16:47.709Z,15.60
2023-02-15T11:19:18.285Z,13.63
2023-02-15T11:21:46.960Z,12.43
2023-02-15T11:24:15.168Z,10.40
2023-02-15T11:26:41.582Z,13.87
2023-02-15T11:29:07.977Z,12.00
2023-02-15T11:31:44.837Z,14.17
2023-02-15T11:34:15.485Z,12.00
2023-02-15T11:36:42.560Z,12.83
2023-02-15T11:39:11.895Z,10.67
2023-02-15T11:41:39.999Z,13.07
2023-02-15T11:44:06.408Z,13.63
2023-02-15T11:46:32.929Z,13.23
2023-02-15T11:48:59.468Z,12.97
2023-02-15T11:51:28.100Z,13.97
2023-02-15T11:53:54.865Z,12.80
2023-02-15T11:56:23.288Z,13.63
2023-02-15T11:59:02.862Z,9.90
2023-02-15T12:01:32.225Z,11.60
2023-02-15T12:04:11.674Z,11.70
2023-02-15T12:07:04.535Z,13.00
2023-02-15T12:09:40.198Z,12.53
2023-02-15T12:12:26.994Z,12.63
2023-02-15T12:14:57.551Z,15.13
2023-02-15T12:17:24.963Z,12.83
2023-02-15T12:19:53.580Z,15.10
2023-02-15T12:22:22.869Z,13.43
2023-02-15T12:24:52.219Z,13.60
2023-02-15T12:27:20.472Z,11.57
2023-02-15T12:29:48.693Z,11.87
2023-02-15T12:32:24.861Z,14.50
2023-02-15T12:34:52.714Z,12.77
2023-02-15T12:37:23.924Z,13.93
2023-02-15T12:39:57.750Z,17.33
2023-02-15T12:42:25.427Z,15.47
2023-02-15T12:44:56.206Z,13.37
2023-02-15T12:47:28.943Z,13.87
2023-02-15T12:50:12.839Z,13.77
2023-02-15T12:52:40.228Z,14.37
2023-02-15T12:55:21.352Z,14.97
2023-02-15T12:57:48.283Z,13.90
2023-02-15T13:00:21.872Z,21.10
2023-02-15T13:02:52.486Z,18.47
2023-02-15T13:05:49.853Z,16.23
2023-02-15T13:08:19.590Z,15.00
2023-02-15T13:10:57.122Z,14.80
2023-02-15T13:13:26.857Z,14.80
2023-02-15T13:15:54.841Z,14.63
2023-02-15T13:18:30.246Z,14.43
2023-02-15T13:20:57.024Z,18.13
2023-02-15T13:23:36.370Z,16.90
2023-02-15T13:26:08.052Z,15.00
2023-02-15T13:28:45.359Z,16.13
2023-02-15T13:31:33.742Z,15.67
2023-02-15T13:34:08.399Z,15.23
2023-02-15T13:36:58.286Z,14.67
2023-02-15T13:39:26.894Z,15.27
2023-02-15T13:42:08.416Z,18.53
2023-02-15T13:45:02.278Z,17.17
2023-02-15T13:47:33.977Z,18.07
2023-02-15T13:50:19.150Z,17.17
2023-02-15T13:53:04.091Z,15.77
2023-02-15T13:55:33.519Z,20.57
2023-02-15T13:58:18.614Z,16.07
2023-02-15T14:00:50.700Z,15.77
2023-02-15T14:03:23.218Z,25.20
2023-02-15T14:05:52.797Z,22.17
2023-02-15T14:08:34.828Z,23.50
2023-02-15T14:11:09.307Z,27.10
2023-02-15T14:13:35.908Z,19.17
2023-02-15T14:16:08.147Z,20.60
2023-02-15T14:18:47.076Z,15.10
2023-02-15T14:21:38.072Z,19.80
2023-02-15T14:24:33.744Z,26.63
2023-02-15T14:27:05.826Z,19.47
2023-02-15T14:29:50.928Z,19.87
2023-02-15T14:32:41.635Z,26.23
2023-02-15T14:35:18.189Z,26.10
2023-02-15T14:37:51.105Z,17.13
2023-02-15T14:40:36.460Z,21.37
2023-02-15T14:43:15.098Z,20.60
2023-02-15T14:45:47.536Z,44.83
2023-02-15T14:48:20.184Z,20.20
2023-02-15T14:50:48.633Z,29.10
2023-02-15T14:53:32.181Z,31.67
2023-02-15T14:56:23.958Z,23.33
2023-02-15T14:58:50.446Z,23.73
2023-02-15T15:01:42.009Z,19.40
2023-02-15T15:04:14.754Z,27.07
2023-02-15T15:06:43.174Z,22.23
2023-02-15T15:09:21.682Z,31.90
2023-02-15T15:11:51.903Z,29.33
2023-02-15T15:14:33.649Z,29.27
2023-02-15T15:17:06.564Z,37.73
2023-02-15T15:19:52.197Z,31.27
2023-02-15T15:22:42.714Z,26.57
2023-02-15T15:25:13.702Z,27.27
2023-02-15T15:27:46.830Z,26.40
2023-02-15T15:30:16.326Z,24.30
2023-02-15T15:32:55.283Z,26.97
2023-02-15T15:35:28.135Z,19.87
2023-02-15T15:38:20.797Z,33.47
2023-02-15T15:41:02.749Z,35.00
2023-02-15T15:43:44.568Z,25.27
2023-02-15T15:46:31.838Z,41.27
2023-02-15T15:49:02.433Z,26.90
2023-02-15T15:51:34.208Z,34.60
2023-02-15T15:54:03.050Z,30.57
2023-02-15T15:56:32.515Z,33.10
2023-02-15T15:59:01.882Z,29.80
2023-02-15T16:01:30.490Z,55.97
2023-02-15T16:03:58.957Z,68.03
2023-02-15T16:06:29.778Z,69.60
2023-02-15T16:12:42.498Z,78.20
2023-02-15T16:15:17.972Z,92.17
2023-02-15T16:17:46.621Z,161.80
2023-02-15T16:20:22.925Z,103.60
2023-02-15T16:22:54.912Z,104.40
2023-02-15T16:25:40.475Z,86.20
2023-02-15T16:28:08.734Z,85.40
2023-02-15T16:30:37.629Z,84.17
2023-02-15T16:33:05.022Z,86.07
2023-02-15T16:35:32.524Z,84.47
2023-02-15T16:37:59.316Z,88.30
2023-02-15T16:40:58.778Z,99.00
2023-02-15T16:43:27.481Z,91.07
2023-02-15T16:46:07.645Z,117.57
2023-02-15T16:48:36.332Z,99.37
2023-02-15T16:51:05.661Z,79.83
2023-02-15T16:53:34.146Z,71.70
2023-02-15T16:56:03.457Z,117.77
2023-02-15T16:58:42.922Z,97.23
2023-02-15T17:01:15.395Z,78.07
2023-02-15T17:03:42.757Z,67.17
2023-02-15T17:06:51.926Z,61.43
2023-02-15T17:09:19.635Z,57.77
2023-02-15T17:11:51.576Z,70.10
2023-02-15T17:14:22.700Z,55.80
2023-02-15T17:16:54.731Z,46.97
2023-02-15T17:19:23.825Z,46.47
2023-02-15T17:21:52.319Z,47.07
2023-02-15T17:24:49.196Z,50.00
2023-02-15T17:27:22.295Z,46.43
2023-02-15T17:30:12.069Z,42.07
2023-02-15T17:32:39.260Z,54.63
2023-02-15T17:35:32.861Z,64.00
2023-02-15T17:38:04.703Z,63.47
2023-02-15T17:40:33.715Z,68.03
2023-02-15T17:43:00.603Z,77.97
2023-02-15T17:45:33.263Z,79.07
2023-02-15T17:47:59.961Z,89.63
2023-02-15T17:50:29.904Z,91.80
2023-02-15T17:53:01.679Z,91.87
2023-02-15T17:55:41.458Z,98.97
2023-02-15T17:58:10.046Z,99.93
2023-02-15T18:01:00.446Z,118.50
2023-02-15T18:03:49.670Z,111.63
2023-02-15T18:06:40.851Z,116.37
2023-02-15T18:09:29.094Z,117.67
2023-02-15T18:11:57.065Z,123.87
2023-02-15T18:14:23.928Z,112.13
2023-02-15T18:16:50.902Z,100.93
2023-02-15T18:19:20.160Z,117.40
2023-02-15T18:21:47.425Z,121.73
2023-02-15T18:24:18.672Z,112.10
2023-02-15T18:26:45.724Z,117.17
2023-02-15T18:29:13.333Z,66.87
2023-02-15T18:31:40.383Z,86.67
2023-02-15T18:34:09.964Z,55.07
2023-02-15T18:36:43.026Z,78.23
2023-02-15T18:39:36.046Z,87.67
2023-02-15T18:42:03.614Z,148.27
2023-02-15T18:52:18.631Z,86.57
2023-02-15T18:54:48.029Z,70.17
2023-02-15T18:57:15.773Z,73.17
2023-02-15T18:59:42.666Z,61.10
2023-02-15T19:02:17.189Z,64.57
2023-02-15T19:04:44.747Z,57.40
2023-02-15T19:07:26.378Z,57.13
2023-02-15T19:13:36.334Z,47.73
2023-02-15T19:16:05.121Z,45.43
2023-02-15T19:18:32.165Z,43.50
2023-02-15T19:20:59.032Z,45.70
2023-02-15T19:23:26.873Z,47.07
2023-02-15T19:25:54.020Z,43.00
2023-02-15T19:28:28.356Z,32.03
2023-02-15T19:30:55.181Z,29.53
2023-02-15T19:33:23.825Z,32.87
2023-02-15T19:36:17.670Z,30.80
2023-02-15T19:38:46.612Z,29.67
2023-02-15T19:41:17.607Z,39.33
2023-02-15T19:43:46.684Z,29.97
2023-02-15T19:46:19.298Z,32.17
2023-02-15T19:48:46.931Z,42.27
2023-02-15T19:51:14.299Z,45.67
2023-02-15T19:53:41.283Z,37.50
2023-02-15T19:56:21.199Z,40.47
2023-02-15T19:58:50.687Z,38.03
2023-02-15T20:01:19.068Z,39.97
2023-02-15T20:04:02.415Z,42.03
2023-02-15T20:06:42.412Z,40.70
2023-02-15T20:09:18.216Z,33.57
2023-02-15T20:11:44.927Z,33.57
2023-02-15T20:14:16.419Z,34.33
2023-02-15T20:16:43.362Z,32.83
2023-02-15T20:19:10.179Z,32.50
2023-02-15T20:21:37.384Z,64.23
2023-02-15T20:24:18.820Z,39.20
2023-02-15T20:30:24.649Z,36.07
2023-02-15T20:32:51.929Z,33.83
2023-02-15T20:35:23.017Z,33.17
2023-02-15T20:37:52.657Z,33.83
2023-02-15T20:40:20.806Z,36.97
2023-02-15T20:42:52.047Z,34.60
2023-02-15T20:45:25.359Z,36.93
2023-02-15T20:47:55.040Z,35.30
2023-02-15T20:50:26.408Z,37.47
2023-02-15T20:52:54.142Z,36.10
2023-02-15T20:58:36.239Z,41.67
2023-02-15T21:01:03.514Z,35.43
2023-02-15T21:03:32.937Z,39.13
2023-02-15T21:05:59.745Z,38.03
2023-02-15T21:08:26.592Z,39.17
2023-02-15T21:10:54.248Z,36.97
2023-02-15T21:13:25.433Z,38.43
2023-02-15T21:15:53.402Z,37.30
2023-02-15T21:18:30.554Z,38.23
2023-02-15T21:20:58.871Z,36.77
2023-02-15T21:23:33.841Z,37.40
2023-02-15T21:26:00.746Z,37.10
2023-02-15T21:28:28.423Z,37.63
2023-02-15T21:34:26.745Z,39.53
2023-02-15T21:36:53.745Z,41.13
2023-02-15T21:39:27.390Z,40.10
2023-02-15T21:42:13.516Z,38.03
2023-02-15T21:44:58.765Z,39.57
2023-02-15T21:47:50.521Z,37.07
2023-02-15T21:50:40.122Z,40.30
2023-02-15T21:53:09.951Z,46.43
2023-02-15T21:55:36.755Z,45.83
2023-02-15T21:58:03.522Z,51.20
2023-02-15T22:00:30.946Z,54.93
2023-02-15T22:02:58.479Z,62.57
2023-02-15T22:05:27.913Z,66.33
2023-02-15T22:07:54.526Z,61.13
2023-02-15T22:10:22.697Z,59.83
2023-02-15T22:12:50.175Z,61.30
2023-02-15T22:15:20.650Z,58.43
2023-02-15T22:17:47.913Z,60.07
2023-02-15T22:27:31.619Z,59.03
2023-02-15T22:29:58.893Z,60.87
2023-02-15T22:32:26.251Z,60.27
2023-02-15T22:34:53.516Z,59.90
2023-02-15T22:37:20.324Z,59.37
2023-02-15T22:39:46.867Z,55.87
2023-02-15T22:42:25.248Z,59.67
2023-02-15T22:44:53.364Z,61.50
2023-02-15T22:47:21.729Z,62.10
2023-02-15T22:53:16.276Z,59.40
2023-02-15T22:55:43.124Z,58.10
2023-02-15T22:58:15.167Z,57.23
2023-02-15T23:00:41.711Z,58.43
2023-02-15T23:03:15.732Z,61.80
2023-02-15T23:05:42.207Z,63.33
2023-02-15T23:08:09.410Z,63.33
2023-02-15T23:10:35.950Z,62.70
2023-02-15T23:13:22.927Z,57.00
2023-02-15T23:16:01.282Z,59.17
2023-02-15T23:18:27.702Z,58.33
2023-02-15T23:21:06.935Z,58.40
2023-02-15T23:23:35.201Z,56.90
2023-02-15T23:26:04.519Z,53.23
2023-02-15T23:28:33.662Z,52.70
2023-02-15T23:31:00.869Z,54.63
2023-02-15T23:33:29.232Z,60.53
2023-02-15T23:35:55.742Z,53.50
2023-02-15T23:38:29.322Z,55.87
2023-02-15T23:41:16.615Z,54.83
2023-02-15T23:43:46.250Z,54.47
2023-02-15T23:46:24.861Z,56.00
2023-02-15T23:48:52.925Z,51.80
2023-02-15T23:51:20.138Z,59.90
2023-02-15T23:53:46.710Z,54.30
2023-02-15T23:56:14.038Z,56.00
2023-02-15T23:58:41.738Z,55.53
